sensor_id;sensor_type;location;lat;lon;timestamp;pressure;altitude;pressure_sealevel;temperature;humidity
41636;BME280;27623;51.966;4.602;2023-03-19T00:02:06;64368.38;;;11.37;100.00
41636;BME280;27623;51.966;4.602;2023-03-19T00:04:32;64347.22;;;11.41;100.00
41636;BME280;27623;51.966;4.602;2023-03-19T00:07:00;64331.88;;;11.48;100.00
41636;BME280;27623;51.966;4.602;2023-03-19T00:09:28;64370.84;;;11.58;100.00
41636;BME280;27623;51.966;4.602;2023-03-19T00:11:53;64408.03;;;11.57;100.00
41636;BME280;27623;51.966;4.602;2023-03-19T00:14:18;64383.78;;;11.61;100.00
41636;BME280;27623;51.966;4.602;2023-03-19T00:16:44;64316.38;;;11.46;100.00
41636;BME280;27623;51.966;4.602;2023-03-19T00:19:10;64386.34;;;11.61;100.00
41636;BME280;27623;51.966;4.602;2023-03-19T00:21:35;64360.84;;;11.54;100.00
41636;BME280;27623;51.966;4.602;2023-03-19T00:24:00;64425.13;;;11.68;100.00
41636;BME280;27623;51.966;4.602;2023-03-19T00:26:31;64364.41;;;11.76;100.00
41636;BME280;27623;51.966;4.602;2023-03-19T00:28:57;64389.03;;;11.70;100.00
41636;BME280;27623;51.966;4.602;2023-03-19T00:31:24;64414.34;;;11.75;100.00
41636;BME280;27623;51.966;4.602;2023-03-19T00:33:49;64376.06;;;11.82;100.00
41636;BME280;27623;51.966;4.602;2023-03-19T00:36:15;64406.84;;;11.85;100.00
41636;BME280;27623;51.966;4.602;2023-03-19T00:38:42;64370.63;;;11.70;100.00
41636;BME280;27623;51.966;4.602;2023-03-19T00:41:07;64351.53;;;11.59;100.00
41636;BME280;27623;51.966;4.602;2023-03-19T00:43:33;64369.38;;;11.59;100.00
41636;BME280;27623;51.966;4.602;2023-03-19T00:46:02;64364.06;;;11.64;100.00
41636;BME280;27623;51.966;4.602;2023-03-19T00:48:30;64376.16;;;11.54;100.00
41636;BME280;27623;51.966;4.602;2023-03-19T00:51:01;64376.50;;;11.59;100.00
41636;BME280;27623;51.966;4.602;2023-03-19T00:53:27;64377.41;;;11.57;100.00
41636;BME280;27623;51.966;4.602;2023-03-19T00:55:52;64406.22;;;11.60;100.00
41636;BME280;27623;51.966;4.602;2023-03-19T00:58:18;64374.41;;;11.28;100.00
41636;BME280;27623;51.966;4.602;2023-03-19T01:00:43;64335.56;;;11.35;100.00
41636;BME280;27623;51.966;4.602;2023-03-19T01:03:09;64366.50;;;11.47;100.00
41636;BME280;27623;51.966;4.602;2023-03-19T01:05:35;64356.88;;;11.41;100.00
41636;BME280;27623;51.966;4.602;2023-03-19T01:08:02;64354.19;;;11.31;100.00
41636;BME280;27623;51.966;4.602;2023-03-19T01:10:28;64353.81;;;11.33;100.00
41636;BME280;27623;51.966;4.602;2023-03-19T01:12:53;64321.38;;;11.36;100.00
41636;BME280;27623;51.966;4.602;2023-03-19T01:15:19;64400.59;;;11.46;100.00
41636;BME280;27623;51.966;4.602;2023-03-19T01:17:44;64396.91;;;11.59;100.00
41636;BME280;27623;51.966;4.602;2023-03-19T01:20:10;64348.09;;;11.47;100.00
41636;BME280;27623;51.966;4.602;2023-03-19T01:22:43;64385.81;;;11.46;100.00
41636;BME280;27623;51.966;4.602;2023-03-19T01:25:10;64366.19;;;11.42;100.00
41636;BME280;27623;51.966;4.602;2023-03-19T01:27:36;64376.75;;;11.40;100.00
41636;BME280;27623;51.966;4.602;2023-03-19T01:30:02;64355.88;;;11.63;100.00
41636;BME280;27623;51.966;4.602;2023-03-19T01:32:28;64385.41;;;11.62;100.00
41636;BME280;27623;51.966;4.602;2023-03-19T01:34:53;64385.03;;;11.64;100.00
41636;BME280;27623;51.966;4.602;2023-03-19T01:37:21;64408.19;;;11.67;100.00
41636;BME280;27623;51.966;4.602;2023-03-19T01:39:49;64382.88;;;11.62;100.00
41636;BME280;27623;51.966;4.602;2023-03-19T01:42:14;64382.69;;;11.60;100.00
41636;BME280;27623;51.966;4.602;2023-03-19T01:44:40;64374.69;;;11.55;100.00
41636;BME280;27623;51.966;4.602;2023-03-19T01:47:35;64371.28;;;11.42;100.00
41636;BME280;27623;51.966;4.602;2023-03-19T01:50:01;64362.31;;;11.46;100.00
41636;BME280;27623;51.966;4.602;2023-03-19T01:52:31;64337.22;;;11.36;100.00
41636;BME280;27623;51.966;4.602;2023-03-19T01:54:59;64363.44;;;11.40;100.00
41636;BME280;27623;51.966;4.602;2023-03-19T01:57:28;64363.75;;;11.52;100.00
41636;BME280;27623;51.966;4.602;2023-03-19T01:59:56;64350.50;;;11.37;100.00
41636;BME280;27623;51.966;4.602;2023-03-19T02:02:31;64343.41;;;11.38;100.00
41636;BME280;27623;51.966;4.602;2023-03-19T02:05:09;64319.03;;;11.24;100.00
41636;BME280;27623;51.966;4.602;2023-03-19T02:07:37;64348.22;;;11.18;100.00
41636;BME280;27623;51.966;4.602;2023-03-19T02:10:06;64338.03;;;11.11;100.00
41636;BME280;27623;51.966;4.602;2023-03-19T02:12:35;64355.34;;;11.11;100.00
41636;BME280;27623;51.966;4.602;2023-03-19T02:15:00;64296.31;;;11.13;100.00
41636;BME280;27623;51.966;4.602;2023-03-19T02:17:27;64370.22;;;11.27;100.00
41636;BME280;27623;51.966;4.602;2023-03-19T02:22:42;64315.09;;;11.04;100.00
41636;BME280;27623;51.966;4.602;2023-03-19T02:25:13;64305.13;;;10.92;100.00
41636;BME280;27623;51.966;4.602;2023-03-19T02:27:41;64303.06;;;11.07;100.00
41636;BME280;27623;51.966;4.602;2023-03-19T02:30:22;64320.91;;;11.07;100.00
41636;BME280;27623;51.966;4.602;2023-03-19T02:32:48;64330.41;;;11.04;100.00
41636;BME280;27623;51.966;4.602;2023-03-19T02:35:16;64296.53;;;11.01;100.00
41636;BME280;27623;51.966;4.602;2023-03-19T02:37:45;64289.13;;;10.82;100.00
41636;BME280;27623;51.966;4.602;2023-03-19T02:40:21;64325.53;;;10.92;100.00
41636;BME280;27623;51.966;4.602;2023-03-19T02:42:48;64320.59;;;10.95;100.00
41636;BME280;27623;51.966;4.602;2023-03-19T02:45:17;64301.31;;;10.89;100.00
41636;BME280;27623;51.966;4.602;2023-03-19T02:47:42;64342.25;;;10.98;100.00
41636;BME280;27623;51.966;4.602;2023-03-19T02:50:08;64329.88;;;10.96;100.00
41636;BME280;27623;51.966;4.602;2023-03-19T02:52:34;64329.69;;;11.01;100.00
41636;BME280;27623;51.966;4.602;2023-03-19T02:55:00;64316.41;;;10.93;100.00
41636;BME280;27623;51.966;4.602;2023-03-19T02:57:28;64315.69;;;10.90;100.00
41636;BME280;27623;51.966;4.602;2023-03-19T02:59:56;64310.22;;;10.92;100.00
41636;BME280;27623;51.966;4.602;2023-03-19T03:02:21;64303.13;;;10.93;100.00
41636;BME280;27623;51.966;4.602;2023-03-19T03:04:47;64264.75;;;10.76;100.00
41636;BME280;27623;51.966;4.602;2023-03-19T03:07:14;64296.59;;;10.87;100.00
41636;BME280;27623;51.966;4.602;2023-03-19T03:09:40;64297.00;;;10.71;100.00
41636;BME280;27623;51.966;4.602;2023-03-19T03:12:05;64279.91;;;10.66;100.00
41636;BME280;27623;51.966;4.602;2023-03-19T03:14:33;64300.44;;;10.76;100.00
41636;BME280;27623;51.966;4.602;2023-03-19T03:16:59;64309.19;;;10.77;100.00
41636;BME280;27623;51.966;4.602;2023-03-19T03:19:24;64295.34;;;10.76;100.00
41636;BME280;27623;51.966;4.602;2023-03-19T03:21:50;64255.88;;;10.65;100.00
41636;BME280;27623;51.966;4.602;2023-03-19T03:24:16;64278.44;;;10.60;100.00
41636;BME280;27623;51.966;4.602;2023-03-19T03:26:41;64295.72;;;10.74;100.00
41636;BME280;27623;51.966;4.602;2023-03-19T03:29:12;64323.56;;;10.79;100.00
41636;BME280;27623;51.966;4.602;2023-03-19T03:31:37;64345.38;;;10.92;100.00
41636;BME280;27623;51.966;4.602;2023-03-19T03:34:03;64294.84;;;10.61;100.00
41636;BME280;27623;51.966;4.602;2023-03-19T03:36:28;64273.91;;;10.61;100.00
41636;BME280;27623;51.966;4.602;2023-03-19T03:38:56;64301.69;;;10.87;100.00
41636;BME280;27623;51.966;4.602;2023-03-19T03:41:22;64285.69;;;10.77;100.00
41636;BME280;27623;51.966;4.602;2023-03-19T03:43:48;64247.00;;;10.48;100.00
41636;BME280;27623;51.966;4.602;2023-03-19T03:46:13;64254.84;;;10.50;100.00
41636;BME280;27623;51.966;4.602;2023-03-19T03:48:38;64225.41;;;10.30;100.00
41636;BME280;27623;51.966;4.602;2023-03-19T03:51:04;64212.00;;;10.06;100.00
41636;BME280;27623;51.966;4.602;2023-03-19T03:53:29;64215.44;;;10.11;100.00
41636;BME280;27623;51.966;4.602;2023-03-19T03:55:55;64185.34;;;9.88;100.00
41636;BME280;27623;51.966;4.602;2023-03-19T03:58:21;64200.09;;;9.73;100.00
41636;BME280;27623;51.966;4.602;2023-03-19T04:00:48;64204.06;;;9.79;100.00
41636;BME280;27623;51.966;4.602;2023-03-19T04:03:13;64162.28;;;9.71;100.00
41636;BME280;27623;51.966;4.602;2023-03-19T04:05:39;64196.78;;;9.77;100.00
41636;BME280;27623;51.966;4.602;2023-03-19T04:08:05;64195.53;;;9.81;100.00
41636;BME280;27623;51.966;4.602;2023-03-19T04:10:34;64156.28;;;9.73;100.00
41636;BME280;27623;51.966;4.602;2023-03-19T04:13:03;64126.94;;;9.45;100.00
41636;BME280;27623;51.966;4.602;2023-03-19T04:15:28;64121.13;;;9.42;100.00
41636;BME280;27623;51.966;4.602;2023-03-19T04:17:54;64153.22;;;9.65;100.00
41636;BME280;27623;51.966;4.602;2023-03-19T04:20:19;64202.44;;;9.78;100.00
41636;BME280;27623;51.966;4.602;2023-03-19T04:22:46;64205.69;;;9.88;100.00
41636;BME280;27623;51.966;4.602;2023-03-19T04:25:12;64185.88;;;9.95;100.00
41636;BME280;27623;51.966;4.602;2023-03-19T04:27:37;64214.72;;;10.08;100.00
41636;BME280;27623;51.966;4.602;2023-03-19T04:30:03;64201.28;;;10.12;100.00
41636;BME280;27623;51.966;4.602;2023-03-19T04:32:28;64224.72;;;10.20;100.00
41636;BME280;27623;51.966;4.602;2023-03-19T04:34:54;64216.88;;;10.24;100.00
41636;BME280;27623;51.966;4.602;2023-03-19T04:37:20;64232.53;;;10.15;100.00
41636;BME280;27623;51.966;4.602;2023-03-19T04:39:45;64206.53;;;10.08;100.00
41636;BME280;27623;51.966;4.602;2023-03-19T04:42:11;64191.63;;;10.06;100.00
41636;BME280;27623;51.966;4.602;2023-03-19T04:44:36;64251.63;;;10.26;100.00
41636;BME280;27623;51.966;4.602;2023-03-19T04:47:04;64224.34;;;10.15;100.00
41636;BME280;27623;51.966;4.602;2023-03-19T04:49:30;64221.59;;;10.33;100.00
41636;BME280;27623;51.966;4.602;2023-03-19T04:51:56;64268.53;;;10.35;100.00
41636;BME280;27623;51.966;4.602;2023-03-19T04:54:25;64262.69;;;10.39;100.00
41636;BME280;27623;51.966;4.602;2023-03-19T04:56:50;64240.72;;;10.16;100.00
41636;BME280;27623;51.966;4.602;2023-03-19T04:59:17;64202.72;;;10.04;100.00
41636;BME280;27623;51.966;4.602;2023-03-19T05:01:42;64208.91;;;10.12;100.00
41636;BME280;27623;51.966;4.602;2023-03-19T05:04:08;64262.19;;;10.24;100.00
41636;BME280;27623;51.966;4.602;2023-03-19T05:06:36;64217.25;;;10.15;100.00
41636;BME280;27623;51.966;4.602;2023-03-19T05:09:02;64224.16;;;10.19;100.00
41636;BME280;27623;51.966;4.602;2023-03-19T05:11:28;64243.44;;;10.25;100.00
41636;BME280;27623;51.966;4.602;2023-03-19T05:13:54;64189.34;;;9.87;100.00
41636;BME280;27623;51.966;4.602;2023-03-19T05:16:22;64195.66;;;10.05;100.00
41636;BME280;27623;51.966;4.602;2023-03-19T05:18:47;64165.25;;;9.48;100.00
41636;BME280;27623;51.966;4.602;2023-03-19T05:21:14;64167.78;;;9.55;100.00
41636;BME280;27623;51.966;4.602;2023-03-19T05:23:40;64141.41;;;9.56;100.00
41636;BME280;27623;51.966;4.602;2023-03-19T05:26:06;64212.59;;;9.85;100.00
41636;BME280;27623;51.966;4.602;2023-03-19T05:28:32;64166.09;;;9.75;100.00
41636;BME280;27623;51.966;4.602;2023-03-19T05:30:58;64167.16;;;9.83;100.00
41636;BME280;27623;51.966;4.602;2023-03-19T05:33:25;64206.78;;;9.82;100.00
41636;BME280;27623;51.966;4.602;2023-03-19T05:35:53;64161.16;;;9.84;100.00
41636;BME280;27623;51.966;4.602;2023-03-19T05:38:19;64187.56;;;9.76;100.00
41636;BME280;27623;51.966;4.602;2023-03-19T05:40:44;64224.03;;;9.95;100.00
41636;BME280;27623;51.966;4.602;2023-03-19T05:43:10;64164.84;;;9.71;100.00
41636;BME280;27623;51.966;4.602;2023-03-19T05:45:36;64185.00;;;9.69;100.00
41636;BME280;27623;51.966;4.602;2023-03-19T05:48:03;64187.38;;;9.73;100.00
41636;BME280;27623;51.966;4.602;2023-03-19T05:50:28;64196.78;;;9.77;100.00
41636;BME280;27623;51.966;4.602;2023-03-19T05:52:54;64211.53;;;9.77;100.00
41636;BME280;27623;51.966;4.602;2023-03-19T05:55:19;64153.91;;;9.82;100.00
41636;BME280;27623;51.966;4.602;2023-03-19T05:57:44;64197.34;;;9.85;100.00
41636;BME280;27623;51.966;4.602;2023-03-19T06:00:13;64211.16;;;9.86;100.00
41636;BME280;27623;51.966;4.602;2023-03-19T06:02:40;64173.91;;;9.77;100.00
41636;BME280;27623;51.966;4.602;2023-03-19T06:05:08;64171.75;;;9.75;100.00
41636;BME280;27623;51.966;4.602;2023-03-19T06:07:37;64158.66;;;9.63;100.00
41636;BME280;27623;51.966;4.602;2023-03-19T06:10:05;64175.38;;;9.69;100.00
41636;BME280;27623;51.966;4.602;2023-03-19T06:12:30;64152.31;;;9.59;100.00
41636;BME280;27623;51.966;4.602;2023-03-19T06:14:56;64170.66;;;9.67;100.00
41636;BME280;27623;51.966;4.602;2023-03-19T06:17:23;64221.72;;;9.77;100.00
41636;BME280;27623;51.966;4.602;2023-03-19T06:19:49;64183.91;;;9.75;100.00
41636;BME280;27623;51.966;4.602;2023-03-19T06:22:14;64200.25;;;9.83;100.00
41636;BME280;27623;51.966;4.602;2023-03-19T06:24:40;64202.63;;;9.73;100.00
41636;BME280;27623;51.966;4.602;2023-03-19T06:27:06;64216.22;;;9.93;100.00
41636;BME280;27623;51.966;4.602;2023-03-19T06:29:31;64221.84;;;10.00;100.00
41636;BME280;27623;51.966;4.602;2023-03-19T06:31:57;64219.09;;;9.98;100.00
41636;BME280;27623;51.966;4.602;2023-03-19T06:34:22;64187.16;;;9.78;100.00
41636;BME280;27623;51.966;4.602;2023-03-19T06:36:47;64193.56;;;9.60;100.00
41636;BME280;27623;51.966;4.602;2023-03-19T06:39:17;64183.00;;;9.76;100.00
41636;BME280;27623;51.966;4.602;2023-03-19T06:41:43;64200.38;;;9.99;100.00
41636;BME280;27623;51.966;4.602;2023-03-19T06:44:12;64218.97;;;9.88;100.00
41636;BME280;27623;51.966;4.602;2023-03-19T06:46:39;64216.59;;;9.91;100.00
41636;BME280;27623;51.966;4.602;2023-03-19T06:49:05;64167.56;;;9.67;100.00
41636;BME280;27623;51.966;4.602;2023-03-19T06:51:31;64185.56;;;9.62;100.00
41636;BME280;27623;51.966;4.602;2023-03-19T06:53:56;64153.41;;;9.60;100.00
41636;BME280;27623;51.966;4.602;2023-03-19T06:56:21;64144.16;;;9.52;100.00
41636;BME280;27623;51.966;4.602;2023-03-19T06:58:47;64139.03;;;9.66;100.00
41636;BME280;27623;51.966;4.602;2023-03-19T07:01:12;64147.81;;;9.53;100.00
41636;BME280;27623;51.966;4.602;2023-03-19T07:03:40;64159.66;;;9.33;100.00
41636;BME280;27623;51.966;4.602;2023-03-19T07:06:05;64144.75;;;9.31;100.00
41636;BME280;27623;51.966;4.602;2023-03-19T07:08:31;64127.50;;;9.24;100.00
41636;BME280;27623;51.966;4.602;2023-03-19T07:11:03;64157.81;;;9.36;100.00
41636;BME280;27623;51.966;4.602;2023-03-19T07:13:29;64105.50;;;9.37;100.00
41636;BME280;27623;51.966;4.602;2023-03-19T07:15:54;64143.66;;;9.30;100.00
41636;BME280;27623;51.966;4.602;2023-03-19T07:18:20;64123.72;;;9.21;100.00
41636;BME280;27623;51.966;4.602;2023-03-19T07:20:46;64146.72;;;9.52;100.00
41636;BME280;27623;51.966;4.602;2023-03-19T07:23:12;64152.53;;;9.48;100.00
41636;BME280;27623;51.966;4.602;2023-03-19T07:25:37;64154.00;;;9.47;100.00
41636;BME280;27623;51.966;4.602;2023-03-19T07:28:03;64125.88;;;9.30;100.00
41636;BME280;27623;51.966;4.602;2023-03-19T07:30:28;64137.81;;;9.41;100.00
41636;BME280;27623;51.966;4.602;2023-03-19T07:32:56;64164.31;;;9.56;100.00
41636;BME280;27623;51.966;4.602;2023-03-19T07:35:24;64147.47;;;9.41;100.00
41636;BME280;27623;51.966;4.602;2023-03-19T07:37:49;64150.31;;;9.60;100.00
41636;BME280;27623;51.966;4.602;2023-03-19T07:40:15;64185.75;;;9.64;100.00
41636;BME280;27623;51.966;4.602;2023-03-19T07:42:40;64207.38;;;9.68;100.00
41636;BME280;27623;51.966;4.602;2023-03-19T07:45:06;64172.84;;;9.62;100.00
41636;BME280;27623;51.966;4.602;2023-03-19T07:47:32;64184.13;;;9.56;100.00
41636;BME280;27623;51.966;4.602;2023-03-19T07:49:57;64115.09;;;9.51;100.00
41636;BME280;27623;51.966;4.602;2023-03-19T07:52:28;64176.66;;;9.65;100.00
41636;BME280;27623;51.966;4.602;2023-03-19T07:54:53;64160.28;;;9.72;100.00
41636;BME280;27623;51.966;4.602;2023-03-19T07:57:18;64128.19;;;9.49;100.00
41636;BME280;27623;51.966;4.602;2023-03-19T07:59:44;64193.38;;;9.72;100.00
41636;BME280;27623;51.966;4.602;2023-03-19T08:02:10;64174.84;;;9.61;100.00
41636;BME280;27623;51.966;4.602;2023-03-19T08:04:38;64175.38;;;9.69;100.00
41636;BME280;27623;51.966;4.602;2023-03-19T08:07:04;64171.56;;;9.58;100.00
41636;BME280;27623;51.966;4.602;2023-03-19T08:09:29;64176.06;;;9.79;100.00
41636;BME280;27623;51.966;4.602;2023-03-19T08:11:54;64131.88;;;9.28;100.00
41636;BME280;27623;51.966;4.602;2023-03-19T08:14:20;64151.63;;;9.42;100.00
41636;BME280;27623;51.966;4.602;2023-03-19T08:16:48;64122.56;;;9.48;100.00
41636;BME280;27623;51.966;4.602;2023-03-19T08:19:14;64166.88;;;9.49;100.00
41636;BME280;27623;51.966;4.602;2023-03-19T08:21:41;64180.28;;;9.67;100.00
41636;BME280;27623;51.966;4.602;2023-03-19T08:24:08;64186.28;;;9.58;100.00
41636;BME280;27623;51.966;4.602;2023-03-19T08:26:34;64161.59;;;9.61;100.00
41636;BME280;27623;51.966;4.602;2023-03-19T08:28:59;64167.03;;;9.66;100.00
41636;BME280;27623;51.966;4.602;2023-03-19T08:31:25;64106.56;;;9.52;100.00
41636;BME280;27623;51.966;4.602;2023-03-19T08:33:51;64163.94;;;9.65;100.00
41636;BME280;27623;51.966;4.602;2023-03-19T08:36:16;64213.00;;;9.76;100.00
41636;BME280;27623;51.966;4.602;2023-03-19T08:38:44;64209.69;;;9.80;100.00
41636;BME280;27623;51.966;4.602;2023-03-19T08:41:09;64165.03;;;9.67;100.00
41636;BME280;27623;51.966;4.602;2023-03-19T08:43:35;64177.75;;;9.59;100.00
41636;BME280;27623;51.966;4.602;2023-03-19T08:46:02;64207.91;;;9.76;100.00
41636;BME280;27623;51.966;4.602;2023-03-19T08:48:28;64176.28;;;9.75;100.00
41636;BME280;27623;51.966;4.602;2023-03-19T08:50:59;64195.69;;;9.90;100.00
41636;BME280;27623;51.966;4.602;2023-03-19T08:53:26;64215.63;;;10.14;100.00
41636;BME280;27623;51.966;4.602;2023-03-19T08:55:57;64274.56;;;10.19;100.00
41636;BME280;27623;51.966;4.602;2023-03-19T08:58:24;64261.66;;;10.09;100.00
41636;BME280;27623;51.966;4.602;2023-03-19T09:00:50;64214.03;;;9.98;100.00
41636;BME280;27623;51.966;4.602;2023-03-19T09:03:18;64210.41;;;9.97;100.00
41636;BME280;27623;51.966;4.602;2023-03-19T09:05:46;64230.72;;;10.11;100.00
41636;BME280;27623;51.966;4.602;2023-03-19T09:08:12;64220.91;;;10.02;100.00
41636;BME280;27623;51.966;4.602;2023-03-19T09:10:38;64249.44;;;10.24;100.00
41636;BME280;27623;51.966;4.602;2023-03-19T09:13:07;64239.63;;;10.15;100.00
41636;BME280;27623;51.966;4.602;2023-03-19T09:15:34;64232.53;;;10.15;100.00
41636;BME280;27623;51.966;4.602;2023-03-19T09:18:02;64257.81;;;10.27;100.00
41636;BME280;27623;51.966;4.602;2023-03-19T09:20:28;64204.16;;;10.24;100.00
41636;BME280;27623;51.966;4.602;2023-03-19T09:22:53;64244.72;;;10.29;100.00
41636;BME280;27623;51.966;4.602;2023-03-19T09:25:19;64278.34;;;10.37;100.00
41636;BME280;27623;51.966;4.602;2023-03-19T09:27:44;64230.94;;;9.99;100.00
41636;BME280;27623;51.966;4.602;2023-03-19T09:30:13;64262.91;;;10.27;100.00
41636;BME280;27623;51.966;4.602;2023-03-19T09:32:38;64240.50;;;10.35;100.00
41636;BME280;27623;51.966;4.602;2023-03-19T09:35:04;64231.25;;;10.19;100.00
41636;BME280;27623;51.966;4.602;2023-03-19T09:37:31;64273.59;;;10.42;100.00
41636;BME280;27623;51.966;4.602;2023-03-19T09:39:57;64292.50;;;10.50;100.00
41636;BME280;27623;51.966;4.602;2023-03-19T09:45:15;64309.97;;;10.59;100.00
41636;BME280;27623;51.966;4.602;2023-03-19T09:47:42;64270.09;;;10.57;100.00
41636;BME280;27623;51.966;4.602;2023-03-19T09:50:20;64296.31;;;10.46;100.00
41636;BME280;27623;51.966;4.602;2023-03-19T09:52:57;64285.03;;;10.59;100.00
41636;BME280;27623;51.966;4.602;2023-03-19T09:57:52;64260.28;;;10.48;100.00
41636;BME280;27623;51.966;4.602;2023-03-19T10:00:21;64338.72;;;10.55;100.00
41636;BME280;27623;51.966;4.602;2023-03-19T10:03:00;64321.75;;;10.67;100.00
41636;BME280;27623;51.966;4.602;2023-03-19T10:05:44;64290.66;;;10.60;100.00
41636;BME280;27623;51.966;4.602;2023-03-19T10:16:19;64303.75;;;10.65;100.00
41636;BME280;27623;51.966;4.602;2023-03-19T10:18:51;64279.75;;;10.57;100.00
41636;BME280;27623;51.966;4.602;2023-03-19T10:21:41;64311.72;;;10.77;100.00
41636;BME280;27623;51.966;4.602;2023-03-19T10:27:00;64338.81;;;10.86;100.00
41636;BME280;27623;51.966;4.602;2023-03-19T10:29:27;64247.38;;;10.53;100.00
41636;BME280;27623;51.966;4.602;2023-03-19T10:37:18;64315.91;;;10.79;100.00
41636;BME280;27623;51.966;4.602;2023-03-19T10:39:46;64306.63;;;10.77;100.00
41636;BME280;27623;51.966;4.602;2023-03-19T10:44:56;64291.53;;;10.80;100.00
41636;BME280;27623;51.966;4.602;2023-03-19T10:47:36;64277.69;;;10.72;100.00
41636;BME280;27623;51.966;4.602;2023-03-19T10:50:02;64284.28;;;10.63;100.00
41636;BME280;27623;51.966;4.602;2023-03-19T10:52:30;64259.91;;;10.57;100.00
41636;BME280;27623;51.966;4.602;2023-03-19T10:55:18;64273.22;;;10.51;100.00
41636;BME280;27623;51.966;4.602;2023-03-19T10:57:49;64287.59;;;10.45;100.00
41636;BME280;27623;51.966;4.602;2023-03-19T11:00:21;64267.78;;;10.39;100.00
41636;BME280;27623;51.966;4.602;2023-03-19T11:02:50;64275.78;;;10.44;100.00
41636;BME280;27623;51.966;4.602;2023-03-19T11:05:24;64298.66;;;10.65;100.00
41636;BME280;27623;51.966;4.602;2023-03-19T11:08:16;64324.66;;;10.65;100.00
41636;BME280;27623;51.966;4.602;2023-03-19T11:10:46;64291.19;;;10.60;100.00
41636;BME280;27623;51.966;4.602;2023-03-19T11:15:46;64280.84;;;10.51;100.00
41636;BME280;27623;51.966;4.602;2023-03-19T11:18:18;64298.31;;;10.53;100.00
41636;BME280;27623;51.966;4.602;2023-03-19T11:21:06;64276.31;;;10.51;100.00
41636;BME280;27623;51.966;4.602;2023-03-19T11:23:40;64246.28;;;10.52;100.00
41636;BME280;27623;51.966;4.602;2023-03-19T11:26:06;64273.34;;;10.60;100.00
41636;BME280;27623;51.966;4.602;2023-03-19T11:28:36;64300.69;;;10.57;100.00
41636;BME280;27623;51.966;4.602;2023-03-19T11:31:29;64319.91;;;10.78;100.00
41636;BME280;27623;51.966;4.602;2023-03-19T11:40:16;64315.03;;;10.66;100.00
41636;BME280;27623;51.966;4.602;2023-03-19T11:53:20;64376.06;;;11.23;100.00
41636;BME280;27623;51.966;4.602;2023-03-19T11:56:01;64344.34;;;11.29;100.00
41636;BME280;27623;51.966;4.602;2023-03-19T12:12:27;64375.31;;;11.34;100.00
41636;BME280;27623;51.966;4.602;2023-03-19T12:22:37;64381.88;;;11.26;100.00
41636;BME280;27623;51.966;4.602;2023-03-19T12:28:23;64403.66;;;11.60;100.00
41636;BME280;27623;51.966;4.602;2023-03-19T12:33:52;64466.09;;;11.92;100.00
41636;BME280;27623;51.966;4.602;2023-03-19T12:36:28;64478.69;;;11.97;100.00
41636;BME280;27623;51.966;4.602;2023-03-19T12:39:05;64496.09;;;12.27;100.00
41636;BME280;27623;51.966;4.602;2023-03-19T12:41:39;64540.50;;;12.64;100.00
41636;BME280;27623;51.966;4.602;2023-03-19T12:44:09;64528.44;;;12.67;100.00
41636;BME280;27623;51.966;4.602;2023-03-19T12:46:56;64513.50;;;12.58;100.00
41636;BME280;27623;51.966;4.602;2023-03-19T12:49:33;64521.19;;;12.58;100.00
41636;BME280;27623;51.966;4.602;2023-03-19T12:54:42;64512.25;;;12.54;100.00
41636;BME280;27623;51.966;4.602;2023-03-19T12:57:15;64553.59;;;12.76;100.00
41636;BME280;27623;51.966;4.602;2023-03-19T13:02:23;64536.25;;;12.77;100.00
41636;BME280;27623;51.966;4.602;2023-03-19T13:05:00;64534.44;;;12.72;100.00
41636;BME280;27623;51.966;4.602;2023-03-19T13:10:34;64574.44;;;12.74;100.00
41636;BME280;27623;51.966;4.602;2023-03-19T13:13:20;64550.69;;;12.71;100.00
41636;BME280;27623;51.966;4.602;2023-03-19T13:15:51;64491.97;;;12.57;98.53
41636;BME280;27623;51.966;4.602;2023-03-19T13:21:20;64538.31;;;12.62;99.13
41636;BME280;27623;51.966;4.602;2023-03-19T13:23:49;64554.94;;;12.65;99.70
41636;BME280;27623;51.966;4.602;2023-03-19T13:26:16;64525.75;;;12.50;100.00
41636;BME280;27623;51.966;4.602;2023-03-19T13:31:47;64507.31;;;12.50;100.00
41636;BME280;27623;51.966;4.602;2023-03-19T13:36:41;64519.72;;;12.52;99.44
41636;BME280;27623;51.966;4.602;2023-03-19T13:39:27;64486.50;;;12.52;99.69
41636;BME280;27623;51.966;4.602;2023-03-19T13:44:40;64501.16;;;12.42;97.81
41636;BME280;27623;51.966;4.602;2023-03-19T13:50:21;64474.78;;;12.22;99.75
41636;BME280;27623;51.966;4.602;2023-03-19T13:52:49;64506.91;;;12.21;99.17
41636;BME280;27623;51.966;4.602;2023-03-19T13:57:56;64469.84;;;12.24;99.17
41636;BME280;27623;51.966;4.602;2023-03-19T14:03:34;64472.69;;;12.36;99.38
41636;BME280;27623;51.966;4.602;2023-03-19T14:06:01;64482.72;;;12.41;99.47
41636;BME280;27623;51.966;4.602;2023-03-19T14:08:41;64494.59;;;12.35;98.97
41636;BME280;27623;51.966;4.602;2023-03-19T14:11:09;64512.50;;;12.35;99.45
41636;BME280;27623;51.966;4.602;2023-03-19T14:13:42;64470.88;;;12.32;98.96
41636;BME280;27623;51.966;4.602;2023-03-19T14:16:14;64490.09;;;12.22;100.00
41636;BME280;27623;51.966;4.602;2023-03-19T14:18:42;64458.03;;;12.09;100.00
41636;BME280;27623;51.966;4.602;2023-03-19T14:21:16;64473.53;;;12.11;100.00
41636;BME280;27623;51.966;4.602;2023-03-19T14:23:55;64464.94;;;12.13;100.00
41636;BME280;27623;51.966;4.602;2023-03-19T14:26:41;64452.91;;;12.16;100.00
41636;BME280;27623;51.966;4.602;2023-03-19T14:29:12;64513.63;;;12.22;100.00
41636;BME280;27623;51.966;4.602;2023-03-19T14:31:49;64491.03;;;12.20;100.00
41636;BME280;27623;51.966;4.602;2023-03-19T14:36:56;64443.41;;;12.12;100.00
41636;BME280;27623;51.966;4.602;2023-03-19T14:39:25;64445.78;;;12.09;100.00
41636;BME280;27623;51.966;4.602;2023-03-19T14:42:00;64468.06;;;12.06;100.00
41636;BME280;27623;51.966;4.602;2023-03-19T14:44:38;64437.47;;;11.92;100.00